sensor_id;sensor_type;location;lat;lon;timestamp;P1;durP1;ratioP1;P2;durP2;ratioP2
37203;SDS011;23098;48.054;10.636;2022-12-07T00:03:32;26.52;;;11.20;;
37203;SDS011;23098;48.054;10.636;2022-12-07T00:05:58;21.10;;;10.88;;
37203;SDS011;23098;48.054;10.636;2022-12-07T00:08:24;24.50;;;10.80;;
37203;SDS011;23098;48.054;10.636;2022-12-07T00:10:50;23.48;;;11.02;;
37203;SDS011;23098;48.054;10.636;2022-12-07T00:13:15;20.63;;;10.25;;
37203;SDS011;23098;48.054;10.636;2022-12-07T00:15:41;21.30;;;10.10;;
37203;SDS011;23098;48.054;10.636;2022-12-07T00:18:06;16.63;;;9.63;;
37203;SDS011;23098;48.054;10.636;2022-12-07T00:20:32;21.65;;;10.73;;
37203;SDS011;23098;48.054;10.636;2022-12-07T00:22:58;21.33;;;9.98;;
37203;SDS011;23098;48.054;10.636;2022-12-07T00:25:23;18.20;;;10.00;;
37203;SDS011;23098;48.054;10.636;2022-12-07T00:27:49;18.00;;;9.40;;
37203;SDS011;23098;48.054;10.636;2022-12-07T00:30:15;17.85;;;9.23;;
37203;SDS011;23098;48.054;10.636;2022-12-07T00:32:40;17.80;;;8.75;;
37203;SDS011;23098;48.054;10.636;2022-12-07T00:35:06;16.40;;;8.63;;
37203;SDS011;23098;48.054;10.636;2022-12-07T00:37:32;19.95;;;8.90;;
37203;SDS011;23098;48.054;10.636;2022-12-07T00:39:57;16.73;;;9.57;;
37203;SDS011;23098;48.054;10.636;2022-12-07T00:42:23;19.35;;;10.05;;
37203;SDS011;23098;48.054;10.636;2022-12-07T00:44:48;20.33;;;9.65;;
37203;SDS011;23098;48.054;10.636;2022-12-07T00:47:14;24.48;;;10.00;;
37203;SDS011;23098;48.054;10.636;2022-12-07T00:49:39;24.33;;;10.35;;
37203;SDS011;23098;48.054;10.636;2022-12-07T00:52:05;22.02;;;9.20;;
37203;SDS011;23098;48.054;10.636;2022-12-07T00:54:30;18.75;;;9.48;;
37203;SDS011;23098;48.054;10.636;2022-12-07T00:56:56;21.13;;;9.52;;
37203;SDS011;23098;48.054;10.636;2022-12-07T00:59:21;19.23;;;9.55;;
37203;SDS011;23098;48.054;10.636;2022-12-07T01:01:47;18.23;;;9.35;;
37203;SDS011;23098;48.054;10.636;2022-12-07T01:04:12;16.33;;;8.98;;
37203;SDS011;23098;48.054;10.636;2022-12-07T01:06:38;15.13;;;8.80;;
37203;SDS011;23098;48.054;10.636;2022-12-07T01:09:03;14.32;;;8.32;;
37203;SDS011;23098;48.054;10.636;2022-12-07T01:11:31;14.88;;;8.88;;
37203;SDS011;23098;48.054;10.636;2022-12-07T01:13:57;17.52;;;8.93;;
37203;SDS011;23098;48.054;10.636;2022-12-07T01:16:24;13.82;;;8.27;;
37203;SDS011;23098;48.054;10.636;2022-12-07T01:18:52;13.50;;;7.85;;
37203;SDS011;23098;48.054;10.636;2022-12-07T01:21:19;15.32;;;8.93;;
37203;SDS011;23098;48.054;10.636;2022-12-07T01:23:59;14.70;;;8.38;;
37203;SDS011;23098;48.054;10.636;2022-12-07T01:26:26;13.52;;;8.05;;
37203;SDS011;23098;48.054;10.636;2022-12-07T01:28:52;14.43;;;7.80;;
37203;SDS011;23098;48.054;10.636;2022-12-07T01:31:20;14.30;;;9.00;;
37203;SDS011;23098;48.054;10.636;2022-12-07T01:33:48;15.13;;;8.70;;
37203;SDS011;23098;48.054;10.636;2022-12-07T01:38:45;12.20;;;7.57;;
37203;SDS011;23098;48.054;10.636;2022-12-07T01:41:13;13.20;;;8.35;;
37203;SDS011;23098;48.054;10.636;2022-12-07T01:54:34;11.35;;;6.88;;
37203;SDS011;23098;48.054;10.636;2022-12-07T01:57:00;12.90;;;8.07;;
37203;SDS011;23098;48.054;10.636;2022-12-07T01:59:27;12.30;;;7.60;;
37203;SDS011;23098;48.054;10.636;2022-12-07T02:01:54;10.43;;;7.35;;
37203;SDS011;23098;48.054;10.636;2022-12-07T02:04:21;12.07;;;7.43;;
37203;SDS011;23098;48.054;10.636;2022-12-07T02:06:47;11.60;;;7.55;;
37203;SDS011;23098;48.054;10.636;2022-12-07T02:09:14;12.25;;;7.53;;
37203;SDS011;23098;48.054;10.636;2022-12-07T02:11:40;11.98;;;7.32;;
37203;SDS011;23098;48.054;10.636;2022-12-07T02:14:06;12.02;;;7.85;;
37203;SDS011;23098;48.054;10.636;2022-12-07T02:16:34;14.07;;;8.43;;
37203;SDS011;23098;48.054;10.636;2022-12-07T02:31:06;14.27;;;8.25;;
37203;SDS011;23098;48.054;10.636;2022-12-07T02:33:41;13.10;;;8.57;;
37203;SDS011;23098;48.054;10.636;2022-12-07T02:36:46;13.40;;;8.05;;
37203;SDS011;23098;48.054;10.636;2022-12-07T02:39:11;13.88;;;8.10;;
37203;SDS011;23098;48.054;10.636;2022-12-07T02:41:49;13.85;;;8.52;;
37203;SDS011;23098;48.054;10.636;2022-12-07T02:44:20;13.32;;;7.80;;
37203;SDS011;23098;48.054;10.636;2022-12-07T02:46:51;14.70;;;8.82;;
37203;SDS011;23098;48.054;10.636;2022-12-07T02:49:27;16.52;;;8.25;;
37203;SDS011;23098;48.054;10.636;2022-12-07T02:51:54;13.35;;;7.80;;
37203;SDS011;23098;48.054;10.636;2022-12-07T02:54:20;13.80;;;7.68;;
37203;SDS011;23098;48.054;10.636;2022-12-07T03:02:25;15.38;;;8.35;;
37203;SDS011;23098;48.054;10.636;2022-12-07T03:05:13;14.45;;;8.27;;
37203;SDS011;23098;48.054;10.636;2022-12-07T03:08:02;14.82;;;8.65;;
37203;SDS011;23098;48.054;10.636;2022-12-07T03:11:02;13.98;;;8.07;;
37203;SDS011;23098;48.054;10.636;2022-12-07T03:16:19;14.90;;;8.70;;
37203;SDS011;23098;48.054;10.636;2022-12-07T03:24:08;16.30;;;9.27;;
37203;SDS011;23098;48.054;10.636;2022-12-07T03:26:39;18.10;;;9.13;;
37203;SDS011;23098;48.054;10.636;2022-12-07T03:29:20;17.77;;;9.70;;
37203;SDS011;23098;48.054;10.636;2022-12-07T03:31:58;19.73;;;9.85;;
37203;SDS011;23098;48.054;10.636;2022-12-07T03:34:42;22.40;;;10.68;;
37203;SDS011;23098;48.054;10.636;2022-12-07T03:37:15;20.63;;;9.38;;
37203;SDS011;23098;48.054;10.636;2022-12-07T03:39:51;22.13;;;9.35;;
37203;SDS011;23098;48.054;10.636;2022-12-07T03:42:21;20.95;;;10.32;;
37203;SDS011;23098;48.054;10.636;2022-12-07T03:44:47;18.65;;;10.07;;
37203;SDS011;23098;48.054;10.636;2022-12-07T03:47:20;18.13;;;9.85;;
37203;SDS011;23098;48.054;10.636;2022-12-07T03:49:58;16.88;;;9.10;;
37203;SDS011;23098;48.054;10.636;2022-12-07T03:52:46;18.45;;;9.80;;
37203;SDS011;23098;48.054;10.636;2022-12-07T03:55:20;20.15;;;9.20;;
37203;SDS011;23098;48.054;10.636;2022-12-07T03:57:54;19.10;;;9.55;;
37203;SDS011;23098;48.054;10.636;2022-12-07T04:00:23;15.90;;;8.87;;
37203;SDS011;23098;48.054;10.636;2022-12-07T04:02:51;18.27;;;10.32;;
37203;SDS011;23098;48.054;10.636;2022-12-07T04:05:20;16.83;;;8.52;;
37203;SDS011;23098;48.054;10.636;2022-12-07T04:07:46;19.52;;;9.88;;
37203;SDS011;23098;48.054;10.636;2022-12-07T04:10:11;20.70;;;10.25;;
37203;SDS011;23098;48.054;10.636;2022-12-07T04:12:37;19.33;;;10.10;;
37203;SDS011;23098;48.054;10.636;2022-12-07T04:15:03;20.45;;;10.20;;
37203;SDS011;23098;48.054;10.636;2022-12-07T04:17:29;23.20;;;10.18;;
37203;SDS011;23098;48.054;10.636;2022-12-07T04:19:54;21.27;;;10.65;;
37203;SDS011;23098;48.054;10.636;2022-12-07T04:22:20;21.48;;;10.70;;
37203;SDS011;23098;48.054;10.636;2022-12-07T04:24:46;21.25;;;10.70;;
37203;SDS011;23098;48.054;10.636;2022-12-07T04:27:11;22.50;;;10.20;;
37203;SDS011;23098;48.054;10.636;2022-12-07T04:29:37;21.50;;;10.63;;
37203;SDS011;23098;48.054;10.636;2022-12-07T04:32:03;26.52;;;11.30;;
37203;SDS011;23098;48.054;10.636;2022-12-07T04:34:28;20.63;;;11.05;;
37203;SDS011;23098;48.054;10.636;2022-12-07T04:36:54;25.52;;;11.82;;
37203;SDS011;23098;48.054;10.636;2022-12-07T04:39:24;20.58;;;11.32;;
37203;SDS011;23098;48.054;10.636;2022-12-07T04:41:51;23.10;;;11.93;;
37203;SDS011;23098;48.054;10.636;2022-12-07T04:44:18;23.05;;;11.18;;
37203;SDS011;23098;48.054;10.636;2022-12-07T04:46:44;21.77;;;11.43;;
37203;SDS011;23098;48.054;10.636;2022-12-07T04:49:10;22.90;;;10.85;;
37203;SDS011;23098;48.054;10.636;2022-12-07T04:51:36;19.48;;;10.18;;
37203;SDS011;23098;48.054;10.636;2022-12-07T04:54:02;18.83;;;9.95;;
37203;SDS011;23098;48.054;10.636;2022-12-07T04:56:28;22.60;;;10.68;;
37203;SDS011;23098;48.054;10.636;2022-12-07T04:58:53;21.27;;;10.32;;
37203;SDS011;23098;48.054;10.636;2022-12-07T05:01:20;20.75;;;10.40;;
37203;SDS011;23098;48.054;10.636;2022-12-07T05:03:46;18.33;;;9.38;;
37203;SDS011;23098;48.054;10.636;2022-12-07T05:06:12;21.20;;;9.98;;
37203;SDS011;23098;48.054;10.636;2022-12-07T05:08:38;19.90;;;10.13;;
37203;SDS011;23098;48.054;10.636;2022-12-07T05:11:05;17.80;;;9.88;;
37203;SDS011;23098;48.054;10.636;2022-12-07T05:13:31;19.70;;;9.98;;
37203;SDS011;23098;48.054;10.636;2022-12-07T05:15:57;18.65;;;9.10;;
37203;SDS011;23098;48.054;10.636;2022-12-07T05:18:23;21.08;;;9.35;;
37203;SDS011;23098;48.054;10.636;2022-12-07T05:20:49;16.35;;;9.00;;
37203;SDS011;23098;48.054;10.636;2022-12-07T05:23:16;18.48;;;9.23;;
37203;SDS011;23098;48.054;10.636;2022-12-07T05:25:42;17.85;;;9.07;;
37203;SDS011;23098;48.054;10.636;2022-12-07T05:28:08;15.68;;;9.05;;
37203;SDS011;23098;48.054;10.636;2022-12-07T05:30:33;15.70;;;8.50;;
37203;SDS011;23098;48.054;10.636;2022-12-07T05:32:59;16.70;;;9.63;;
37203;SDS011;23098;48.054;10.636;2022-12-07T05:35:24;19.65;;;9.82;;
37203;SDS011;23098;48.054;10.636;2022-12-07T05:37:50;17.38;;;9.63;;
37203;SDS011;23098;48.054;10.636;2022-12-07T05:40:16;20.80;;;10.48;;
37203;SDS011;23098;48.054;10.636;2022-12-07T05:42:42;19.17;;;10.23;;
37203;SDS011;23098;48.054;10.636;2022-12-07T05:45:08;21.05;;;10.45;;
37203;SDS011;23098;48.054;10.636;2022-12-07T05:47:34;18.50;;;10.43;;
37203;SDS011;23098;48.054;10.636;2022-12-07T05:50:00;18.90;;;10.63;;
37203;SDS011;23098;48.054;10.636;2022-12-07T05:52:26;20.20;;;10.52;;
37203;SDS011;23098;48.054;10.636;2022-12-07T05:54:52;20.83;;;10.88;;
37203;SDS011;23098;48.054;10.636;2022-12-07T05:57:18;20.63;;;10.55;;
37203;SDS011;23098;48.054;10.636;2022-12-07T05:59:44;21.92;;;10.05;;
37203;SDS011;23098;48.054;10.636;2022-12-07T06:02:11;19.60;;;10.65;;
37203;SDS011;23098;48.054;10.636;2022-12-07T06:04:40;22.08;;;10.85;;
37203;SDS011;23098;48.054;10.636;2022-12-07T06:07:08;22.40;;;11.25;;
37203;SDS011;23098;48.054;10.636;2022-12-07T06:09:34;20.65;;;10.57;;
37203;SDS011;23098;48.054;10.636;2022-12-07T06:12:00;28.73;;;11.85;;
37203;SDS011;23098;48.054;10.636;2022-12-07T06:14:46;23.08;;;11.15;;
37203;SDS011;23098;48.054;10.636;2022-12-07T06:17:12;24.80;;;11.43;;
37203;SDS011;23098;48.054;10.636;2022-12-07T06:19:38;22.88;;;11.93;;
37203;SDS011;23098;48.054;10.636;2022-12-07T06:22:04;22.33;;;10.95;;
37203;SDS011;23098;48.054;10.636;2022-12-07T06:24:30;21.40;;;11.45;;
37203;SDS011;23098;48.054;10.636;2022-12-07T06:26:56;22.95;;;12.00;;
37203;SDS011;23098;48.054;10.636;2022-12-07T06:29:21;24.15;;;11.65;;
37203;SDS011;23098;48.054;10.636;2022-12-07T06:31:47;27.88;;;12.10;;
37203;SDS011;23098;48.054;10.636;2022-12-07T06:34:14;22.63;;;11.38;;
37203;SDS011;23098;48.054;10.636;2022-12-07T06:36:41;23.63;;;11.40;;
37203;SDS011;23098;48.054;10.636;2022-12-07T06:39:07;24.73;;;12.32;;
37203;SDS011;23098;48.054;10.636;2022-12-07T06:41:34;23.27;;;12.32;;
37203;SDS011;23098;48.054;10.636;2022-12-07T06:44:04;22.98;;;12.13;;
37203;SDS011;23098;48.054;10.636;2022-12-07T06:46:30;24.63;;;11.52;;
37203;SDS011;23098;48.054;10.636;2022-12-07T06:48:55;25.73;;;12.13;;
37203;SDS011;23098;48.054;10.636;2022-12-07T06:51:21;22.35;;;10.90;;
37203;SDS011;23098;48.054;10.636;2022-12-07T06:53:47;21.65;;;10.93;;
37203;SDS011;23098;48.054;10.636;2022-12-07T06:56:13;25.90;;;12.48;;
37203;SDS011;23098;48.054;10.636;2022-12-07T06:58:39;23.27;;;11.73;;
37203;SDS011;23098;48.054;10.636;2022-12-07T07:01:09;23.48;;;11.48;;
37203;SDS011;23098;48.054;10.636;2022-12-07T07:03:37;22.95;;;11.35;;
37203;SDS011;23098;48.054;10.636;2022-12-07T07:06:03;25.73;;;12.60;;
37203;SDS011;23098;48.054;10.636;2022-12-07T07:08:30;50.75;;;22.50;;
37203;SDS011;23098;48.054;10.636;2022-12-07T07:10:55;52.15;;;20.60;;
37203;SDS011;23098;48.054;10.636;2022-12-07T07:13:21;46.72;;;17.85;;
37203;SDS011;23098;48.054;10.636;2022-12-07T07:15:47;33.92;;;14.98;;
37203;SDS011;23098;48.054;10.636;2022-12-07T07:18:12;33.67;;;15.40;;
37203;SDS011;23098;48.054;10.636;2022-12-07T07:20:38;29.15;;;13.82;;
37203;SDS011;23098;48.054;10.636;2022-12-07T07:23:04;27.30;;;12.20;;
37203;SDS011;23098;48.054;10.636;2022-12-07T07:25:30;24.65;;;11.05;;
37203;SDS011;23098;48.054;10.636;2022-12-07T07:27:57;24.35;;;11.00;;
37203;SDS011;23098;48.054;10.636;2022-12-07T07:30:22;23.23;;;11.40;;
37203;SDS011;23098;48.054;10.636;2022-12-07T07:32:48;22.75;;;11.68;;
37203;SDS011;23098;48.054;10.636;2022-12-07T07:35:14;23.05;;;11.45;;
37203;SDS011;23098;48.054;10.636;2022-12-07T07:37:40;24.38;;;10.70;;
37203;SDS011;23098;48.054;10.636;2022-12-07T07:40:06;26.33;;;11.80;;
37203;SDS011;23098;48.054;10.636;2022-12-07T07:42:32;31.52;;;11.65;;
37203;SDS011;23098;48.054;10.636;2022-12-07T07:44:58;24.17;;;11.70;;
37203;SDS011;23098;48.054;10.636;2022-12-07T07:47:23;21.60;;;11.55;;
37203;SDS011;23098;48.054;10.636;2022-12-07T07:49:49;27.02;;;12.60;;
37203;SDS011;23098;48.054;10.636;2022-12-07T07:52:14;20.25;;;10.77;;
37203;SDS011;23098;48.054;10.636;2022-12-07T07:54:40;23.15;;;11.25;;
37203;SDS011;23098;48.054;10.636;2022-12-07T07:57:05;21.52;;;10.82;;
37203;SDS011;23098;48.054;10.636;2022-12-07T07:59:31;27.55;;;12.68;;
37203;SDS011;23098;48.054;10.636;2022-12-07T08:01:56;26.80;;;12.32;;
37203;SDS011;23098;48.054;10.636;2022-12-07T08:04:22;25.20;;;11.73;;
37203;SDS011;23098;48.054;10.636;2022-12-07T08:06:47;24.83;;;12.85;;
37203;SDS011;23098;48.054;10.636;2022-12-07T08:09:13;24.63;;;12.10;;
37203;SDS011;23098;48.054;10.636;2022-12-07T08:11:38;26.10;;;11.88;;
37203;SDS011;23098;48.054;10.636;2022-12-07T08:14:04;25.88;;;12.25;;
37203;SDS011;23098;48.054;10.636;2022-12-07T08:16:29;22.35;;;11.25;;
37203;SDS011;23098;48.054;10.636;2022-12-07T08:18:55;25.23;;;12.25;;
37203;SDS011;23098;48.054;10.636;2022-12-07T08:21:21;25.48;;;12.77;;
37203;SDS011;23098;48.054;10.636;2022-12-07T08:23:47;25.95;;;11.63;;
37203;SDS011;23098;48.054;10.636;2022-12-07T08:26:13;28.40;;;12.43;;
37203;SDS011;23098;48.054;10.636;2022-12-07T08:28:40;30.15;;;14.10;;
37203;SDS011;23098;48.054;10.636;2022-12-07T08:31:08;25.77;;;11.75;;
37203;SDS011;23098;48.054;10.636;2022-12-07T08:33:37;35.95;;;17.92;;
37203;SDS011;23098;48.054;10.636;2022-12-07T08:36:04;33.85;;;16.13;;
37203;SDS011;23098;48.054;10.636;2022-12-07T08:38:31;24.25;;;12.95;;
37203;SDS011;23098;48.054;10.636;2022-12-07T08:40:57;28.83;;;14.63;;
37203;SDS011;23098;48.054;10.636;2022-12-07T08:43:24;22.58;;;11.13;;
37203;SDS011;23098;48.054;10.636;2022-12-07T08:45:52;23.25;;;11.95;;
37203;SDS011;23098;48.054;10.636;2022-12-07T08:48:31;26.63;;;13.20;;
37203;SDS011;23098;48.054;10.636;2022-12-07T08:51:00;26.00;;;13.57;;
37203;SDS011;23098;48.054;10.636;2022-12-07T08:53:27;24.52;;;12.07;;
37203;SDS011;23098;48.054;10.636;2022-12-07T08:55:53;22.30;;;10.57;;
37203;SDS011;23098;48.054;10.636;2022-12-07T08:58:20;25.10;;;12.18;;
37203;SDS011;23098;48.054;10.636;2022-12-07T09:00:46;25.83;;;13.05;;
37203;SDS011;23098;48.054;10.636;2022-12-07T09:03:11;25.95;;;13.10;;
37203;SDS011;23098;48.054;10.636;2022-12-07T09:05:37;25.88;;;13.00;;
37203;SDS011;23098;48.054;10.636;2022-12-07T09:08:02;25.27;;;13.05;;
37203;SDS011;23098;48.054;10.636;2022-12-07T09:10:28;23.70;;;11.30;;
37203;SDS011;23098;48.054;10.636;2022-12-07T09:12:54;26.50;;;12.35;;
37203;SDS011;23098;48.054;10.636;2022-12-07T09:15:19;26.42;;;12.68;;
37203;SDS011;23098;48.054;10.636;2022-12-07T09:17:45;24.70;;;11.65;;
37203;SDS011;23098;48.054;10.636;2022-12-07T09:20:10;22.80;;;11.13;;
37203;SDS011;23098;48.054;10.636;2022-12-07T09:22:37;24.65;;;12.73;;
37203;SDS011;23098;48.054;10.636;2022-12-07T09:25:02;23.90;;;12.30;;
37203;SDS011;23098;48.054;10.636;2022-12-07T09:27:29;20.88;;;11.18;;
37203;SDS011;23098;48.054;10.636;2022-12-07T09:29:55;24.35;;;11.55;;
37203;SDS011;23098;48.054;10.636;2022-12-07T09:32:20;22.48;;;12.63;;
37203;SDS011;23098;48.054;10.636;2022-12-07T09:34:46;24.88;;;12.55;;
37203;SDS011;23098;48.054;10.636;2022-12-07T09:37:12;20.75;;;12.00;;
37203;SDS011;23098;48.054;10.636;2022-12-07T09:39:38;17.42;;;9.85;;
37203;SDS011;23098;48.054;10.636;2022-12-07T09:42:04;24.98;;;11.48;;
37203;SDS011;23098;48.054;10.636;2022-12-07T09:44:30;21.02;;;10.80;;
37203;SDS011;23098;48.054;10.636;2022-12-07T09:46:57;22.35;;;12.07;;
37203;SDS011;23098;48.054;10.636;2022-12-07T09:49:24;22.25;;;13.40;;
37203;SDS011;23098;48.054;10.636;2022-12-07T09:52:03;21.98;;;11.60;;
37203;SDS011;23098;48.054;10.636;2022-12-07T09:54:45;19.13;;;11.60;;
37203;SDS011;23098;48.054;10.636;2022-12-07T09:57:13;17.58;;;10.95;;
37203;SDS011;23098;48.054;10.636;2022-12-07T09:59:39;20.35;;;11.38;;
37203;SDS011;23098;48.054;10.636;2022-12-07T10:03:08;17.20;;;9.90;;
37203;SDS011;23098;48.054;10.636;2022-12-07T10:05:07;17.70;;;10.23;;
37203;SDS011;23098;48.054;10.636;2022-12-07T10:07:37;16.30;;;9.23;;
37203;SDS011;23098;48.054;10.636;2022-12-07T10:10:03;38.33;;;18.60;;
37203;SDS011;23098;48.054;10.636;2022-12-07T10:12:52;17.35;;;9.18;;
37203;SDS011;23098;48.054;10.636;2022-12-07T10:15:19;15.48;;;8.60;;
37203;SDS011;23098;48.054;10.636;2022-12-07T10:17:48;15.77;;;9.07;;
37203;SDS011;23098;48.054;10.636;2022-12-07T10:20:20;13.00;;;6.93;;
37203;SDS011;23098;48.054;10.636;2022-12-07T10:23:05;10.05;;;5.60;;
37203;SDS011;23098;48.054;10.636;2022-12-07T10:25:39;11.88;;;7.35;;
37203;SDS011;23098;48.054;10.636;2022-12-07T10:33:31;12.23;;;6.70;;
37203;SDS011;23098;48.054;10.636;2022-12-07T10:35:59;10.85;;;6.20;;
37203;SDS011;23098;48.054;10.636;2022-12-07T10:38:34;9.25;;;5.22;;
37203;SDS011;23098;48.054;10.636;2022-12-07T10:41:10;9.73;;;5.60;;
37203;SDS011;23098;48.054;10.636;2022-12-07T10:43:36;11.20;;;6.30;;
37203;SDS011;23098;48.054;10.636;2022-12-07T10:46:07;8.88;;;5.47;;
37203;SDS011;23098;48.054;10.636;2022-12-07T10:57:50;12.15;;;6.78;;
37203;SDS011;23098;48.054;10.636;2022-12-07T11:00:19;9.60;;;5.72;;
37203;SDS011;23098;48.054;10.636;2022-12-07T11:13:15;13.40;;;7.45;;
37203;SDS011;23098;48.054;10.636;2022-12-07T11:21:31;10.73;;;5.80;;
37203;SDS011;23098;48.054;10.636;2022-12-07T11:29:28;10.10;;;5.82;;
37203;SDS011;23098;48.054;10.636;2022-12-07T11:35:21;9.88;;;5.20;;
37203;SDS011;23098;48.054;10.636;2022-12-07T11:37:55;10.27;;;5.50;;
37203;SDS011;23098;48.054;10.636;2022-12-07T11:40:27;11.13;;;6.05;;
37203;SDS011;23098;48.054;10.636;2022-12-07T11:43:00;10.30;;;6.05;;
37203;SDS011;23098;48.054;10.636;2022-12-07T11:45:37;12.10;;;6.60;;
37203;SDS011;23098;48.054;10.636;2022-12-07T11:48:17;12.82;;;6.80;;
37203;SDS011;23098;48.054;10.636;2022-12-07T11:50:57;13.45;;;6.68;;
37203;SDS011;23098;48.054;10.636;2022-12-07T11:56:15;12.52;;;6.80;;
37203;SDS011;23098;48.054;10.636;2022-12-07T12:04:14;14.48;;;5.85;;
37203;SDS011;23098;48.054;10.636;2022-12-07T12:06:48;9.05;;;5.18;;
37203;SDS011;23098;48.054;10.636;2022-12-07T12:09:19;14.18;;;7.03;;
37203;SDS011;23098;48.054;10.636;2022-12-07T12:14:58;14.13;;;6.78;;
37203;SDS011;23098;48.054;10.636;2022-12-07T12:20:36;12.38;;;6.43;;
37203;SDS011;23098;48.054;10.636;2022-12-07T12:23:16;12.43;;;5.63;;
37203;SDS011;23098;48.054;10.636;2022-12-07T12:25:50;13.77;;;6.88;;
37203;SDS011;23098;48.054;10.636;2022-12-07T12:31:16;12.48;;;7.00;;
37203;SDS011;23098;48.054;10.636;2022-12-07T12:33:56;12.63;;;6.75;;
37203;SDS011;23098;48.054;10.636;2022-12-07T12:39:14;12.55;;;7.22;;
37203;SDS011;23098;48.054;10.636;2022-12-07T12:46:51;9.60;;;6.32;;
37203;SDS011;23098;48.054;10.636;2022-12-07T12:59:25;16.52;;;7.47;;
37203;SDS011;23098;48.054;10.636;2022-12-07T13:15:43;11.90;;;7.15;;
37203;SDS011;23098;48.054;10.636;2022-12-07T13:20:53;12.63;;;7.38;;
37203;SDS011;23098;48.054;10.636;2022-12-07T13:23:28;12.30;;;7.57;;
37203;SDS011;23098;48.054;10.636;2022-12-07T13:31:36;13.60;;;7.60;;
37203;SDS011;23098;48.054;10.636;2022-12-07T13:34:49;10.68;;;6.32;;
37203;SDS011;23098;48.054;10.636;2022-12-07T13:36:56;11.43;;;5.55;;
37203;SDS011;23098;48.054;10.636;2022-12-07T13:39:23;10.15;;;5.82;;
37203;SDS011;23098;48.054;10.636;2022-12-07T13:41:57;11.82;;;5.22;;
37203;SDS011;23098;48.054;10.636;2022-12-07T13:44:26;9.40;;;5.05;;
37203;SDS011;23098;48.054;10.636;2022-12-07T13:47:00;10.40;;;5.78;;
37203;SDS011;23098;48.054;10.636;2022-12-07T13:49:38;9.40;;;5.53;;
37203;SDS011;23098;48.054;10.636;2022-12-07T13:52:15;9.93;;;5.57;;
37203;SDS011;23098;48.054;10.636;2022-12-07T13:54:49;10.77;;;5.80;;
37203;SDS011;23098;48.054;10.636;2022-12-07T13:57:25;10.00;;;5.50;;
37203;SDS011;23098;48.054;10.636;2022-12-07T13:59:53;9.45;;;5.28;;
37203;SDS011;23098;48.054;10.636;2022-12-07T14:02:25;11.10;;;5.63;;
37203;SDS011;23098;48.054;10.636;2022-12-07T14:04:51;8.93;;;5.45;;
37203;SDS011;23098;48.054;10.636;2022-12-07T14:07:30;9.75;;;5.45;;
37203;SDS011;23098;48.054;10.636;2022-12-07T14:09:59;8.38;;;5.20;;
37203;SDS011;23098;48.054;10.636;2022-12-07T14:12:28;11.30;;;5.22;;
37203;SDS011;23098;48.054;10.636;2022-12-07T14:14:55;9.27;;;5.15;;
37203;SDS011;23098;48.054;10.636;2022-12-07T14:17:24;9.10;;;5.50;;
37203;SDS011;23098;48.054;10.636;2022-12-07T14:19:57;9.73;;;5.50;;
37203;SDS011;23098;48.054;10.636;2022-12-07T14:22:26;15.45;;;5.40;;
37203;SDS011;23098;48.054;10.636;2022-12-07T14:28:00;11.05;;;5.88;;
37203;SDS011;23098;48.054;10.636;2022-12-07T14:30:27;8.75;;;5.28;;
37203;SDS011;23098;48.054;10.636;2022-12-07T14:32:59;7.35;;;4.72;;
37203;SDS011;23098;48.054;10.636;2022-12-07T14:35:26;9.35;;;4.50;;
37203;SDS011;23098;48.054;10.636;2022-12-07T14:37:52;8.68;;;4.63;;
37203;SDS011;23098;48.054;10.636;2022-12-07T14:40:20;8.52;;;4.80;;
37203;SDS011;23098;48.054;10.636;2022-12-07T14:42:47;9.02;;;5.22;;
37203;SDS011;23098;48.054;10.636;2022-12-07T14:45:20;8.77;;;5.07;;
37203;SDS011;23098;48.054;10.636;2022-12-07T14:47:47;8.60;;;5.05;;
37203;SDS011;23098;48.054;10.636;2022-12-07T14:50:13;8.98;;;5.15;;
37203;SDS011;23098;48.054;10.636;2022-12-07T14:52:41;11.50;;;6.72;;
37203;SDS011;23098;48.054;10.636;2022-12-07T14:57:54;13.20;;;7.28;;
37203;SDS011;23098;48.054;10.636;2022-12-07T15:00:20;14.77;;;8.02;;
37203;SDS011;23098;48.054;10.636;2022-12-07T15:02:47;14.70;;;7.03;;
37203;SDS011;23098;48.054;10.636;2022-12-07T15:05:14;11.40;;;6.55;;
37203;SDS011;23098;48.054;10.636;2022-12-07T15:07:40;9.75;;;6.38;;
37203;SDS011;23098;48.054;10.636;2022-12-07T15:10:06;12.80;;;8.13;;
37203;SDS011;23098;48.054;10.636;2022-12-07T15:12:43;18.42;;;8.93;;
37203;SDS011;23098;48.054;10.636;2022-12-07T15:15:09;16.50;;;9.23;;
37203;SDS011;23098;48.054;10.636;2022-12-07T15:17:35;19.05;;;10.80;;
37203;SDS011;23098;48.054;10.636;2022-12-07T15:20:00;26.30;;;14.02;;
37203;SDS011;23098;48.054;10.636;2022-12-07T15:22:26;35.80;;;16.08;;
37203;SDS011;23098;48.054;10.636;2022-12-07T15:24:52;31.33;;;15.98;;
37203;SDS011;23098;48.054;10.636;2022-12-07T15:27:17;26.80;;;14.50;;
37203;SDS011;23098;48.054;10.636;2022-12-07T15:29:43;28.65;;;13.70;;
37203;SDS011;23098;48.054;10.636;2022-12-07T15:32:08;20.77;;;11.55;;
37203;SDS011;23098;48.054;10.636;2022-12-07T15:34:34;12.18;;;7.03;;
37203;SDS011;23098;48.054;10.636;2022-12-07T15:36:59;13.63;;;7.25;;
37203;SDS011;23098;48.054;10.636;2022-12-07T15:39:25;13.18;;;7.20;;
37203;SDS011;23098;48.054;10.636;2022-12-07T15:41:50;14.18;;;7.97;;
37203;SDS011;23098;48.054;10.636;2022-12-07T15:44:16;14.57;;;8.13;;
37203;SDS011;23098;48.054;10.636;2022-12-07T15:47:00;38.88;;;18.75;;
37203;SDS011;23098;48.054;10.636;2022-12-07T15:49:26;56.53;;;29.48;;
37203;SDS011;23098;48.054;10.636;2022-12-07T15:51:52;41.17;;;24.25;;
37203;SDS011;23098;48.054;10.636;2022-12-07T15:54:27;26.20;;;14.57;;
37203;SDS011;23098;48.054;10.636;2022-12-07T15:56:54;17.52;;;10.00;;
37203;SDS011;23098;48.054;10.636;2022-12-07T15:59:20;14.38;;;8.63;;
37203;SDS011;23098;48.054;10.636;2022-12-07T16:01:45;13.35;;;7.28;;
37203;SDS011;23098;48.054;10.636;2022-12-07T16:04:11;12.13;;;6.97;;
37203;SDS011;23098;48.054;10.636;2022-12-07T16:06:36;12.45;;;6.95;;
37203;SDS011;23098;48.054;10.636;2022-12-07T16:09:02;13.85;;;7.20;;
37203;SDS011;23098;48.054;10.636;2022-12-07T16:11:28;14.32;;;8.23;;
37203;SDS011;23098;48.054;10.636;2022-12-07T16:13:54;15.45;;;8.05;;
37203;SDS011;23098;48.054;10.636;2022-12-07T16:16:19;14.30;;;7.60;;
37203;SDS011;23098;48.054;10.636;2022-12-07T16:18:46;17.10;;;8.07;;
37203;SDS011;23098;48.054;10.636;2022-12-07T16:21:13;16.77;;;8.05;;
37203;SDS011;23098;48.054;10.636;2022-12-07T16:23:39;19.63;;;8.48;;
37203;SDS011;23098;48.054;10.636;2022-12-07T16:26:06;14.43;;;7.82;;
37203;SDS011;23098;48.054;10.636;2022-12-07T16:28:33;37.63;;;18.77;;
37203;SDS011;23098;48.054;10.636;2022-12-07T16:31:00;26.25;;;13.10;;
37203;SDS011;23098;48.054;10.636;2022-12-07T16:33:34;18.13;;;9.18;;
37203;SDS011;23098;48.054;10.636;2022-12-07T16:36:01;27.58;;;14.40;;
37203;SDS011;23098;48.054;10.636;2022-12-07T16:38:27;52.13;;;23.63;;
37203;SDS011;23098;48.054;10.636;2022-12-07T16:40:53;76.32;;;37.13;;
37203;SDS011;23098;48.054;10.636;2022-12-07T16:43:19;64.47;;;34.40;;
37203;SDS011;23098;48.054;10.636;2022-12-07T16:45:48;68.40;;;33.88;;
37203;SDS011;23098;48.054;10.636;2022-12-07T16:48:14;42.80;;;27.90;;